Lacey Spring, VA (22833)

7:39 PM EDT on July 30, 2016 (GMT -0400)
Lacey Springs MC | | Change Station
Active Advisory: Areal Flood Warning

Elev 1237 ft 38.52 °N, 78.74 °W | Updated 3 seconds ago

Light Thunderstorms and Rain
Light Thunderstorm Rain
74.6 °F
Feels Like 72 °F
N
0.0
Wind Variable Wind from South
Gusts 0.0 mph

Today
High -- | Low -- °F
--% Chance of Precip.
Yesterday
High -- | Low -- °F
Precip. -- in
Pressure 29.97 in
Visibility 5.0 miles
Clouds Scattered Clouds 3600 ft
Mostly Cloudy 4600 ft
Overcast 5500 ft
Heat Index 72 °F
Dew Point 74 °F
Humidity 97%
Rainfall 0.72 in
Snow Depth Not available.
6:15 AM 8:26 PM
Waning Crescent, 10% visible
METAR KLUA 302242Z AUTO 00000KT 5SM -TSRA SCT036 BKN046 OVC055 24/24 A2997 RMK AO2 LTG DSNT ALQS P0003
Pressure 29.97 in
Visibility 5.0 miles
Clouds Scattered Clouds 3600 ft
Mostly Cloudy 4600 ft
Overcast 5500 ft
Heat Index 72 °F
Dew Point 74 °F
Humidity 97%
Rainfall 0.72 in
Snow Depth Not available.
6:15 AM 8:26 PM
Waning Crescent, 10% visible
METAR KLUA 302242Z AUTO 00000KT 5SM -TSRA SCT036 BKN046 OVC055 24/24 A2997 RMK AO2 LTG DSNT ALQS P0003

10-Day Weather Forecast

Almanac

Astronomy

Jul. 30, 2016 Rise Set
Actual Time
Civil Twilight
Nautical Twilight
Astronomical Twilight
Moon
Length of Visible Light
Length of Day
Tomorrow will be .
, % of the Moon is Illuminated

Today's Extremes

State Highs State Lows

Community

WunderPhotos

Upload Photos

1,928,675 photos uploaded!

WunderBlog® & News

Nearby

Air Quality

  Air Quality AQ Index Pollutant
Not available.

Snow Depth

Station Depth Elevation

Earthquake Activity

City Distance Mag. Time & Date
Minimum magnitude displayed is 2.5.

Coastal Water Temperatures

Place Temperature

Stations

Nearby Weather Stations

Station Location Temp. Windchill Dew Point Humidity Wind Precip. Elev Updated Type
                   

Watches & Warnings

Areal Flood Warning
Issued: 6:51 PM EDT Jul. 30, 2016 – National Weather Service

The National Weather Service in Sterling Virginia has issued a

* Flood Warning for...
southwestern Page County in northwestern Virginia...
east central Rockingham County in western Virginia...
north central Greene County in central Virginia...

* until 945 PM EDT

* at 650 PM EDT... Doppler radar indicated thunderstorms producing
heavy rain which will cause flooding. Up to two inches of rain have
already fallen.

* Some locations that will experience flooding include...
Shenandoah... massanutten... Stanley... Elkton... Jollett... Newport...
Ingham... Honeyville and Alma.

Lat... Lon 3861 7851 3840 7846 3840 7877 3850 7883


Rcm